sensor_id;sensor_type;location;lat;lon;timestamp;P1;durP1;ratioP1;P2;durP2;ratioP2
44120;SDS011;29783;52.504;13.478;2023-07-02T00:02:20;1.52;;;0.80;;
44120;SDS011;29783;52.504;13.478;2023-07-02T00:04:46;1.55;;;0.93;;
44120;SDS011;29783;52.504;13.478;2023-07-02T00:07:12;5.38;;;1.00;;
44120;SDS011;29783;52.504;13.478;2023-07-02T00:09:38;2.28;;;1.10;;
44120;SDS011;29783;52.504;13.478;2023-07-02T00:12:04;1.92;;;1.10;;
44120;SDS011;29783;52.504;13.478;2023-07-02T00:14:30;1.00;;;0.85;;
44120;SDS011;29783;52.504;13.478;2023-07-02T00:16:56;1.83;;;0.98;;
44120;SDS011;29783;52.504;13.478;2023-07-02T00:19:21;1.25;;;1.02;;
44120;SDS011;29783;52.504;13.478;2023-07-02T00:21:47;1.33;;;1.15;;
44120;SDS011;29783;52.504;13.478;2023-07-02T00:24:14;1.50;;;1.17;;
44120;SDS011;29783;52.504;13.478;2023-07-02T00:26:41;2.50;;;1.30;;
44120;SDS011;29783;52.504;13.478;2023-07-02T00:29:07;2.67;;;1.30;;
44120;SDS011;29783;52.504;13.478;2023-07-02T00:31:34;1.40;;;1.23;;
44120;SDS011;29783;52.504;13.478;2023-07-02T00:34:00;3.42;;;1.55;;
44120;SDS011;29783;52.504;13.478;2023-07-02T00:36:28;2.38;;;1.30;;
44120;SDS011;29783;52.504;13.478;2023-07-02T00:38:54;2.63;;;1.60;;
44120;SDS011;29783;52.504;13.478;2023-07-02T00:41:20;2.80;;;1.42;;
44120;SDS011;29783;52.504;13.478;2023-07-02T00:43:45;1.83;;;1.48;;
44120;SDS011;29783;52.504;13.478;2023-07-02T00:48:52;1.50;;;1.40;;
44120;SDS011;29783;52.504;13.478;2023-07-02T00:51:19;5.60;;;1.73;;
44120;SDS011;29783;52.504;13.478;2023-07-02T00:53:50;4.05;;;1.67;;
44120;SDS011;29783;52.504;13.478;2023-07-02T00:56:18;2.75;;;1.70;;
44120;SDS011;29783;52.504;13.478;2023-07-02T00:58:45;3.00;;;1.75;;
44120;SDS011;29783;52.504;13.478;2023-07-02T01:01:22;1.73;;;1.63;;
44120;SDS011;29783;52.504;13.478;2023-07-02T01:03:59;2.80;;;1.75;;
44120;SDS011;29783;52.504;13.478;2023-07-02T01:06:31;3.35;;;2.10;;
44120;SDS011;29783;52.504;13.478;2023-07-02T01:08:58;2.72;;;2.13;;
44120;SDS011;29783;52.504;13.478;2023-07-02T01:11:27;3.72;;;1.95;;
44120;SDS011;29783;52.504;13.478;2023-07-02T01:16:32;2.47;;;1.85;;
44120;SDS011;29783;52.504;13.478;2023-07-02T01:18:59;2.55;;;1.98;;
44120;SDS011;29783;52.504;13.478;2023-07-02T01:21:29;2.90;;;1.85;;
44120;SDS011;29783;52.504;13.478;2023-07-02T01:23:57;5.22;;;2.15;;
44120;SDS011;29783;52.504;13.478;2023-07-02T01:26:27;5.38;;;2.30;;
44120;SDS011;29783;52.504;13.478;2023-07-02T01:29:18;3.83;;;2.15;;
44120;SDS011;29783;52.504;13.478;2023-07-02T01:31:45;2.42;;;1.90;;
44120;SDS011;29783;52.504;13.478;2023-07-02T01:34:12;4.25;;;2.33;;
44120;SDS011;29783;52.504;13.478;2023-07-02T01:36:39;9.18;;;2.97;;
44120;SDS011;29783;52.504;13.478;2023-07-02T01:39:05;2.60;;;2.08;;
44120;SDS011;29783;52.504;13.478;2023-07-02T01:41:37;4.32;;;2.38;;
44120;SDS011;29783;52.504;13.478;2023-07-02T01:44:07;3.95;;;2.53;;
44120;SDS011;29783;52.504;13.478;2023-07-02T01:46:32;9.07;;;2.80;;
44120;SDS011;29783;52.504;13.478;2023-07-02T01:48:58;4.22;;;2.55;;
44120;SDS011;29783;52.504;13.478;2023-07-02T01:51:24;4.20;;;2.88;;
44120;SDS011;29783;52.504;13.478;2023-07-02T01:53:49;4.82;;;2.97;;
44120;SDS011;29783;52.504;13.478;2023-07-02T01:56:15;4.28;;;3.17;;
44120;SDS011;29783;52.504;13.478;2023-07-02T01:58:40;4.57;;;2.95;;
44120;SDS011;29783;52.504;13.478;2023-07-02T02:01:06;3.20;;;2.80;;
44120;SDS011;29783;52.504;13.478;2023-07-02T02:03:31;3.17;;;2.65;;
44120;SDS011;29783;52.504;13.478;2023-07-02T02:05:57;10.02;;;3.20;;
44120;SDS011;29783;52.504;13.478;2023-07-02T02:08:23;7.47;;;2.90;;
44120;SDS011;29783;52.504;13.478;2023-07-02T02:10:48;4.50;;;3.25;;
44120;SDS011;29783;52.504;13.478;2023-07-02T02:13:14;10.23;;;3.30;;
44120;SDS011;29783;52.504;13.478;2023-07-02T02:15:39;11.35;;;4.00;;
44120;SDS011;29783;52.504;13.478;2023-07-02T02:18:06;4.22;;;3.25;;
44120;SDS011;29783;52.504;13.478;2023-07-02T02:20:31;8.52;;;3.53;;
44120;SDS011;29783;52.504;13.478;2023-07-02T02:22:57;8.57;;;3.05;;
44120;SDS011;29783;52.504;13.478;2023-07-02T02:25:23;7.80;;;2.92;;
44120;SDS011;29783;52.504;13.478;2023-07-02T02:27:49;5.32;;;3.20;;
44120;SDS011;29783;52.504;13.478;2023-07-02T02:30:15;9.20;;;3.08;;
44120;SDS011;29783;52.504;13.478;2023-07-02T02:32:40;4.82;;;3.17;;
44120;SDS011;29783;52.504;13.478;2023-07-02T02:35:06;7.63;;;2.90;;
44120;SDS011;29783;52.504;13.478;2023-07-02T02:37:33;7.82;;;3.10;;
44120;SDS011;29783;52.504;13.478;2023-07-02T02:40:00;6.35;;;2.83;;
44120;SDS011;29783;52.504;13.478;2023-07-02T02:42:26;6.40;;;2.47;;
44120;SDS011;29783;52.504;13.478;2023-07-02T02:44:51;7.15;;;2.92;;
44120;SDS011;29783;52.504;13.478;2023-07-02T02:47:17;4.85;;;2.65;;
44120;SDS011;29783;52.504;13.478;2023-07-02T02:49:43;7.47;;;2.60;;
44120;SDS011;29783;52.504;13.478;2023-07-02T02:52:08;6.57;;;3.13;;
44120;SDS011;29783;52.504;13.478;2023-07-02T02:54:34;7.70;;;2.53;;
44120;SDS011;29783;52.504;13.478;2023-07-02T02:57:00;8.75;;;2.70;;
44120;SDS011;29783;52.504;13.478;2023-07-02T02:59:25;9.13;;;2.83;;
44120;SDS011;29783;52.504;13.478;2023-07-02T03:01:51;5.22;;;2.55;;
44120;SDS011;29783;52.504;13.478;2023-07-02T03:04:17;7.43;;;2.53;;
44120;SDS011;29783;52.504;13.478;2023-07-02T03:06:42;4.90;;;2.72;;
44120;SDS011;29783;52.504;13.478;2023-07-02T03:09:11;4.18;;;2.22;;
44120;SDS011;29783;52.504;13.478;2023-07-02T03:11:37;5.70;;;2.33;;
44120;SDS011;29783;52.504;13.478;2023-07-02T03:14:04;9.80;;;2.60;;
44120;SDS011;29783;52.504;13.478;2023-07-02T03:16:30;5.15;;;2.42;;
44120;SDS011;29783;52.504;13.478;2023-07-02T03:18:55;5.03;;;2.70;;
44120;SDS011;29783;52.504;13.478;2023-07-02T03:21:24;7.95;;;2.83;;
44120;SDS011;29783;52.504;13.478;2023-07-02T03:23:49;4.20;;;2.58;;
44120;SDS011;29783;52.504;13.478;2023-07-02T03:26:15;5.63;;;3.10;;
44120;SDS011;29783;52.504;13.478;2023-07-02T03:28:41;5.20;;;2.83;;
44120;SDS011;29783;52.504;13.478;2023-07-02T03:31:06;9.20;;;2.58;;
44120;SDS011;29783;52.504;13.478;2023-07-02T03:33:32;6.72;;;2.63;;
44120;SDS011;29783;52.504;13.478;2023-07-02T03:35:58;5.10;;;2.78;;
44120;SDS011;29783;52.504;13.478;2023-07-02T03:38:24;5.30;;;2.60;;
44120;SDS011;29783;52.504;13.478;2023-07-02T03:40:49;6.72;;;2.78;;
44120;SDS011;29783;52.504;13.478;2023-07-02T03:43:15;6.72;;;1.58;;
44120;SDS011;29783;52.504;13.478;2023-07-02T03:45:40;5.70;;;2.65;;
44120;SDS011;29783;52.504;13.478;2023-07-02T03:48:06;9.55;;;2.35;;
44120;SDS011;29783;52.504;13.478;2023-07-02T03:50:32;6.53;;;2.10;;
44120;SDS011;29783;52.504;13.478;2023-07-02T03:52:57;5.00;;;1.95;;
44120;SDS011;29783;52.504;13.478;2023-07-02T03:55:23;6.57;;;2.30;;
44120;SDS011;29783;52.504;13.478;2023-07-02T03:57:48;4.70;;;2.15;;
44120;SDS011;29783;52.504;13.478;2023-07-02T04:00:15;7.90;;;2.20;;
44120;SDS011;29783;52.504;13.478;2023-07-02T04:02:41;4.97;;;2.25;;
44120;SDS011;29783;52.504;13.478;2023-07-02T04:05:07;5.60;;;2.10;;
44120;SDS011;29783;52.504;13.478;2023-07-02T04:07:32;5.13;;;1.88;;
44120;SDS011;29783;52.504;13.478;2023-07-02T04:09:58;5.18;;;2.38;;
44120;SDS011;29783;52.504;13.478;2023-07-02T04:12:24;5.65;;;1.90;;
44120;SDS011;29783;52.504;13.478;2023-07-02T04:14:50;5.35;;;2.20;;
44120;SDS011;29783;52.504;13.478;2023-07-02T04:17:16;6.20;;;2.03;;
44120;SDS011;29783;52.504;13.478;2023-07-02T04:19:41;6.93;;;2.30;;
44120;SDS011;29783;52.504;13.478;2023-07-02T04:22:07;7.45;;;2.20;;
44120;SDS011;29783;52.504;13.478;2023-07-02T04:24:32;4.47;;;1.90;;
44120;SDS011;29783;52.504;13.478;2023-07-02T04:26:58;7.47;;;1.90;;
44120;SDS011;29783;52.504;13.478;2023-07-02T04:29:25;6.85;;;2.05;;
44120;SDS011;29783;52.504;13.478;2023-07-02T04:31:50;9.07;;;1.75;;
44120;SDS011;29783;52.504;13.478;2023-07-02T04:34:16;4.70;;;1.80;;
44120;SDS011;29783;52.504;13.478;2023-07-02T04:36:42;10.15;;;2.10;;
44120;SDS011;29783;52.504;13.478;2023-07-02T04:39:08;4.30;;;1.70;;
44120;SDS011;29783;52.504;13.478;2023-07-02T04:41:35;8.00;;;1.70;;
44120;SDS011;29783;52.504;13.478;2023-07-02T04:44:01;8.25;;;1.90;;
44120;SDS011;29783;52.504;13.478;2023-07-02T04:46:26;8.63;;;1.80;;
44120;SDS011;29783;52.504;13.478;2023-07-02T04:48:52;4.13;;;1.88;;
44120;SDS011;29783;52.504;13.478;2023-07-02T04:51:19;4.43;;;1.70;;
44120;SDS011;29783;52.504;13.478;2023-07-02T04:53:45;4.00;;;1.92;;
44120;SDS011;29783;52.504;13.478;2023-07-02T04:56:11;7.70;;;1.88;;
44120;SDS011;29783;52.504;13.478;2023-07-02T04:58:36;4.47;;;1.45;;
44120;SDS011;29783;52.504;13.478;2023-07-02T05:01:02;5.45;;;2.30;;
44120;SDS011;29783;52.504;13.478;2023-07-02T05:03:28;2.70;;;1.50;;
44120;SDS011;29783;52.504;13.478;2023-07-02T05:05:54;3.97;;;1.65;;
44120;SDS011;29783;52.504;13.478;2023-07-02T05:08:19;3.38;;;1.65;;
44120;SDS011;29783;52.504;13.478;2023-07-02T05:10:45;5.72;;;2.10;;
44120;SDS011;29783;52.504;13.478;2023-07-02T05:13:10;4.75;;;1.63;;
44120;SDS011;29783;52.504;13.478;2023-07-02T05:15:36;4.88;;;1.30;;
44120;SDS011;29783;52.504;13.478;2023-07-02T05:18:01;4.90;;;1.90;;
44120;SDS011;29783;52.504;13.478;2023-07-02T05:20:27;6.28;;;1.67;;
44120;SDS011;29783;52.504;13.478;2023-07-02T05:22:53;6.28;;;1.63;;
44120;SDS011;29783;52.504;13.478;2023-07-02T05:25:18;7.97;;;1.90;;
44120;SDS011;29783;52.504;13.478;2023-07-02T05:27:44;5.18;;;1.75;;
44120;SDS011;29783;52.504;13.478;2023-07-02T05:30:10;4.57;;;1.80;;
44120;SDS011;29783;52.504;13.478;2023-07-02T05:32:36;3.60;;;1.52;;
44120;SDS011;29783;52.504;13.478;2023-07-02T05:35:02;4.88;;;1.88;;
44120;SDS011;29783;52.504;13.478;2023-07-02T05:37:28;4.13;;;1.83;;
44120;SDS011;29783;52.504;13.478;2023-07-02T05:39:53;4.95;;;1.73;;
44120;SDS011;29783;52.504;13.478;2023-07-02T05:42:19;10.82;;;2.42;;
44120;SDS011;29783;52.504;13.478;2023-07-02T05:44:45;4.03;;;1.80;;
44120;SDS011;29783;52.504;13.478;2023-07-02T05:47:10;8.70;;;1.85;;
44120;SDS011;29783;52.504;13.478;2023-07-02T05:49:36;3.53;;;1.60;;
44120;SDS011;29783;52.504;13.478;2023-07-02T05:52:01;9.27;;;1.70;;
44120;SDS011;29783;52.504;13.478;2023-07-02T05:54:27;6.72;;;1.88;;
44120;SDS011;29783;52.504;13.478;2023-07-02T05:56:53;6.25;;;2.05;;
44120;SDS011;29783;52.504;13.478;2023-07-02T05:59:18;3.80;;;1.60;;
44120;SDS011;29783;52.504;13.478;2023-07-02T06:01:44;8.90;;;1.70;;
44120;SDS011;29783;52.504;13.478;2023-07-02T06:04:10;7.38;;;1.80;;
44120;SDS011;29783;52.504;13.478;2023-07-02T06:06:35;5.40;;;2.20;;
44120;SDS011;29783;52.504;13.478;2023-07-02T06:09:01;7.43;;;2.00;;
44120;SDS011;29783;52.504;13.478;2023-07-02T06:11:27;6.97;;;1.55;;
44120;SDS011;29783;52.504;13.478;2023-07-02T06:13:53;5.88;;;1.60;;
44120;SDS011;29783;52.504;13.478;2023-07-02T06:16:20;6.07;;;1.70;;
44120;SDS011;29783;52.504;13.478;2023-07-02T06:18:45;4.47;;;1.55;;
44120;SDS011;29783;52.504;13.478;2023-07-02T06:21:11;6.70;;;1.85;;
44120;SDS011;29783;52.504;13.478;2023-07-02T06:23:43;3.20;;;1.25;;
44120;SDS011;29783;52.504;13.478;2023-07-02T06:26:09;4.55;;;2.05;;
44120;SDS011;29783;52.504;13.478;2023-07-02T06:28:35;7.30;;;1.80;;
44120;SDS011;29783;52.504;13.478;2023-07-02T06:31:01;6.05;;;2.40;;
44120;SDS011;29783;52.504;13.478;2023-07-02T06:33:26;6.95;;;1.55;;
44120;SDS011;29783;52.504;13.478;2023-07-02T06:35:52;6.40;;;2.10;;
44120;SDS011;29783;52.504;13.478;2023-07-02T06:38:18;4.60;;;1.73;;
44120;SDS011;29783;52.504;13.478;2023-07-02T06:40:43;3.58;;;1.73;;
44120;SDS011;29783;52.504;13.478;2023-07-02T06:43:09;5.55;;;1.90;;
44120;SDS011;29783;52.504;13.478;2023-07-02T06:45:36;4.22;;;1.80;;
44120;SDS011;29783;52.504;13.478;2023-07-02T06:48:01;3.72;;;1.80;;
44120;SDS011;29783;52.504;13.478;2023-07-02T06:50:27;9.70;;;2.30;;
44120;SDS011;29783;52.504;13.478;2023-07-02T06:52:53;10.68;;;2.40;;
44120;SDS011;29783;52.504;13.478;2023-07-02T06:55:19;10.13;;;2.03;;
44120;SDS011;29783;52.504;13.478;2023-07-02T06:57:45;6.85;;;2.10;;
44120;SDS011;29783;52.504;13.478;2023-07-02T07:00:11;9.35;;;2.15;;
44120;SDS011;29783;52.504;13.478;2023-07-02T07:02:38;5.55;;;1.58;;
44120;SDS011;29783;52.504;13.478;2023-07-02T07:05:03;3.42;;;1.60;;
44120;SDS011;29783;52.504;13.478;2023-07-02T07:07:29;3.65;;;2.00;;
44120;SDS011;29783;52.504;13.478;2023-07-02T07:09:55;7.13;;;2.13;;
44120;SDS011;29783;52.504;13.478;2023-07-02T07:12:20;10.85;;;1.85;;
44120;SDS011;29783;52.504;13.478;2023-07-02T07:14:46;5.07;;;1.90;;
44120;SDS011;29783;52.504;13.478;2023-07-02T07:17:12;4.40;;;1.95;;
44120;SDS011;29783;52.504;13.478;2023-07-02T07:19:37;6.43;;;2.03;;
44120;SDS011;29783;52.504;13.478;2023-07-02T07:22:03;2.83;;;1.25;;
44120;SDS011;29783;52.504;13.478;2023-07-02T07:24:29;5.28;;;1.70;;
44120;SDS011;29783;52.504;13.478;2023-07-02T07:26:54;6.05;;;2.03;;
44120;SDS011;29783;52.504;13.478;2023-07-02T07:29:21;3.92;;;2.13;;
44120;SDS011;29783;52.504;13.478;2023-07-02T07:31:47;4.68;;;2.10;;
44120;SDS011;29783;52.504;13.478;2023-07-02T07:34:12;3.85;;;1.60;;
44120;SDS011;29783;52.504;13.478;2023-07-02T07:36:38;12.40;;;2.97;;
44120;SDS011;29783;52.504;13.478;2023-07-02T07:39:04;4.60;;;2.15;;
44120;SDS011;29783;52.504;13.478;2023-07-02T07:41:29;4.53;;;2.30;;
44120;SDS011;29783;52.504;13.478;2023-07-02T07:43:55;7.28;;;2.85;;
44120;SDS011;29783;52.504;13.478;2023-07-02T07:46:21;4.63;;;2.17;;
44120;SDS011;29783;52.504;13.478;2023-07-02T07:55:31;3.45;;;2.20;;
44120;SDS011;29783;52.504;13.478;2023-07-02T07:57:57;6.85;;;2.40;;
44120;SDS011;29783;52.504;13.478;2023-07-02T08:00:23;4.57;;;2.03;;
44120;SDS011;29783;52.504;13.478;2023-07-02T08:02:49;2.70;;;1.85;;
44120;SDS011;29783;52.504;13.478;2023-07-02T08:05:17;8.02;;;2.05;;
44120;SDS011;29783;52.504;13.478;2023-07-02T08:07:43;7.68;;;2.03;;
44120;SDS011;29783;52.504;13.478;2023-07-02T08:10:08;6.05;;;1.90;;
44120;SDS011;29783;52.504;13.478;2023-07-02T08:12:34;3.50;;;1.48;;
44120;SDS011;29783;52.504;13.478;2023-07-02T08:15:00;7.82;;;2.00;;
44120;SDS011;29783;52.504;13.478;2023-07-02T08:17:26;4.57;;;1.85;;
44120;SDS011;29783;52.504;13.478;2023-07-02T08:19:51;9.75;;;2.00;;
44120;SDS011;29783;52.504;13.478;2023-07-02T08:22:17;2.80;;;1.23;;
44120;SDS011;29783;52.504;13.478;2023-07-02T08:24:43;5.80;;;1.85;;
44120;SDS011;29783;52.504;13.478;2023-07-02T08:27:08;3.88;;;1.70;;
44120;SDS011;29783;52.504;13.478;2023-07-02T08:29:35;4.63;;;2.17;;
44120;SDS011;29783;52.504;13.478;2023-07-02T08:32:01;4.60;;;2.08;;
44120;SDS011;29783;52.504;13.478;2023-07-02T08:34:27;10.88;;;2.17;;
44120;SDS011;29783;52.504;13.478;2023-07-02T08:36:52;5.55;;;2.35;;
44120;SDS011;29783;52.504;13.478;2023-07-02T08:39:18;5.53;;;2.22;;
44120;SDS011;29783;52.504;13.478;2023-07-02T08:41:44;7.38;;;2.35;;
44120;SDS011;29783;52.504;13.478;2023-07-02T08:44:11;4.32;;;2.20;;
44120;SDS011;29783;52.504;13.478;2023-07-02T08:46:38;10.35;;;2.63;;
44120;SDS011;29783;52.504;13.478;2023-07-02T08:49:06;7.47;;;2.88;;
44120;SDS011;29783;52.504;13.478;2023-07-02T08:51:32;9.50;;;2.97;;
44120;SDS011;29783;52.504;13.478;2023-07-02T08:53:58;4.82;;;2.50;;
44120;SDS011;29783;52.504;13.478;2023-07-02T08:56:23;8.95;;;2.90;;
44120;SDS011;29783;52.504;13.478;2023-07-02T08:58:49;7.63;;;3.10;;
44120;SDS011;29783;52.504;13.478;2023-07-02T09:01:15;6.85;;;2.65;;
44120;SDS011;29783;52.504;13.478;2023-07-02T09:03:40;5.40;;;2.42;;
44120;SDS011;29783;52.504;13.478;2023-07-02T09:06:07;6.18;;;2.67;;
44120;SDS011;29783;52.504;13.478;2023-07-02T09:08:35;6.80;;;3.17;;
44120;SDS011;29783;52.504;13.478;2023-07-02T09:11:08;6.47;;;3.05;;
44120;SDS011;29783;52.504;13.478;2023-07-02T09:13:55;9.25;;;3.40;;
44120;SDS011;29783;52.504;13.478;2023-07-02T09:16:27;6.53;;;2.58;;
44120;SDS011;29783;52.504;13.478;2023-07-02T09:19:03;5.68;;;2.88;;
44120;SDS011;29783;52.504;13.478;2023-07-02T09:21:44;8.23;;;3.33;;
44120;SDS011;29783;52.504;13.478;2023-07-02T09:24:13;8.20;;;2.83;;
44120;SDS011;29783;52.504;13.478;2023-07-02T09:26:50;9.55;;;3.70;;
44120;SDS011;29783;52.504;13.478;2023-07-02T09:29:37;10.98;;;3.55;;
44120;SDS011;29783;52.504;13.478;2023-07-02T09:32:05;5.25;;;3.15;;
44120;SDS011;29783;52.504;13.478;2023-07-02T09:34:34;12.68;;;3.58;;
44120;SDS011;29783;52.504;13.478;2023-07-02T09:37:01;8.65;;;3.33;;
44120;SDS011;29783;52.504;13.478;2023-07-02T09:39:29;7.97;;;4.20;;
44120;SDS011;29783;52.504;13.478;2023-07-02T09:41:56;12.63;;;3.65;;
44120;SDS011;29783;52.504;13.478;2023-07-02T09:44:25;10.88;;;3.80;;
44120;SDS011;29783;52.504;13.478;2023-07-02T09:46:58;12.75;;;3.88;;
44120;SDS011;29783;52.504;13.478;2023-07-02T09:52:04;8.80;;;4.28;;
44120;SDS011;29783;52.504;13.478;2023-07-02T09:54:31;7.53;;;3.60;;
44120;SDS011;29783;52.504;13.478;2023-07-02T09:56:57;13.73;;;5.15;;
44120;SDS011;29783;52.504;13.478;2023-07-02T09:59:23;9.85;;;3.17;;
44120;SDS011;29783;52.504;13.478;2023-07-02T10:01:49;10.00;;;4.88;;
44120;SDS011;29783;52.504;13.478;2023-07-02T10:04:17;14.20;;;4.20;;
44120;SDS011;29783;52.504;13.478;2023-07-02T10:06:47;9.80;;;5.13;;
44120;SDS011;29783;52.504;13.478;2023-07-02T10:09:14;14.98;;;4.90;;
44120;SDS011;29783;52.504;13.478;2023-07-02T10:11:40;10.15;;;4.57;;
44120;SDS011;29783;52.504;13.478;2023-07-02T10:14:05;9.90;;;4.32;;
44120;SDS011;29783;52.504;13.478;2023-07-02T10:16:31;11.65;;;5.10;;
44120;SDS011;29783;52.504;13.478;2023-07-02T10:21:35;13.43;;;4.80;;
44120;SDS011;29783;52.504;13.478;2023-07-02T10:24:13;10.77;;;5.43;;
44120;SDS011;29783;52.504;13.478;2023-07-02T10:26:56;16.00;;;4.65;;
44120;SDS011;29783;52.504;13.478;2023-07-02T10:29:23;10.55;;;4.60;;
44120;SDS011;29783;52.504;13.478;2023-07-02T10:31:50;12.52;;;4.85;;
44120;SDS011;29783;52.504;13.478;2023-07-02T10:34:27;13.13;;;5.35;;
44120;SDS011;29783;52.504;13.478;2023-07-02T10:36:55;7.20;;;2.97;;
44120;SDS011;29783;52.504;13.478;2023-07-02T10:39:21;15.45;;;5.10;;
44120;SDS011;29783;52.504;13.478;2023-07-02T10:41:47;21.67;;;4.57;;
44120;SDS011;29783;52.504;13.478;2023-07-02T10:44:14;15.15;;;5.28;;
44120;SDS011;29783;52.504;13.478;2023-07-02T10:49:16;12.43;;;5.00;;
44120;SDS011;29783;52.504;13.478;2023-07-02T10:51:43;14.52;;;4.93;;
44120;SDS011;29783;52.504;13.478;2023-07-02T10:54:10;10.82;;;5.13;;
44120;SDS011;29783;52.504;13.478;2023-07-02T10:56:35;11.48;;;5.55;;
44120;SDS011;29783;52.504;13.478;2023-07-02T10:59:01;16.80;;;5.28;;
44120;SDS011;29783;52.504;13.478;2023-07-02T11:01:27;17.73;;;5.47;;
44120;SDS011;29783;52.504;13.478;2023-07-02T11:04:01;14.75;;;5.20;;
44120;SDS011;29783;52.504;13.478;2023-07-02T11:06:29;12.18;;;4.97;;
44120;SDS011;29783;52.504;13.478;2023-07-02T11:08:57;19.17;;;5.85;;
44120;SDS011;29783;52.504;13.478;2023-07-02T11:11:23;16.88;;;4.97;;
44120;SDS011;29783;52.504;13.478;2023-07-02T11:13:50;14.88;;;4.35;;
44120;SDS011;29783;52.504;13.478;2023-07-02T11:16:23;18.23;;;4.53;;
44120;SDS011;29783;52.504;13.478;2023-07-02T11:18:54;17.15;;;5.50;;
44120;SDS011;29783;52.504;13.478;2023-07-02T11:21:34;14.77;;;6.03;;
44120;SDS011;29783;52.504;13.478;2023-07-02T11:24:03;19.67;;;6.20;;
44120;SDS011;29783;52.504;13.478;2023-07-02T11:26:40;17.42;;;5.88;;
44120;SDS011;29783;52.504;13.478;2023-07-02T11:29:12;18.80;;;6.28;;
44120;SDS011;29783;52.504;13.478;2023-07-02T11:31:43;15.90;;;6.07;;
44120;SDS011;29783;52.504;13.478;2023-07-02T11:34:15;16.15;;;6.28;;
44120;SDS011;29783;52.504;13.478;2023-07-02T11:36:42;16.70;;;6.32;;
44120;SDS011;29783;52.504;13.478;2023-07-02T11:39:08;10.93;;;5.30;;
44120;SDS011;29783;52.504;13.478;2023-07-02T11:41:37;16.45;;;6.25;;
44120;SDS011;29783;52.504;13.478;2023-07-02T11:44:03;14.43;;;6.07;;
44120;SDS011;29783;52.504;13.478;2023-07-02T11:46:29;27.73;;;5.90;;
44120;SDS011;29783;52.504;13.478;2023-07-02T11:48:55;32.40;;;6.60;;
44120;SDS011;29783;52.504;13.478;2023-07-02T11:51:21;21.50;;;6.25;;
44120;SDS011;29783;52.504;13.478;2023-07-02T11:53:46;23.27;;;6.63;;
44120;SDS011;29783;52.504;13.478;2023-07-02T11:56:12;28.80;;;6.50;;
44120;SDS011;29783;52.504;13.478;2023-07-02T11:58:38;19.95;;;7.07;;
44120;SDS011;29783;52.504;13.478;2023-07-02T12:01:04;19.80;;;6.22;;
44120;SDS011;29783;52.504;13.478;2023-07-02T12:03:30;15.68;;;5.20;;
44120;SDS011;29783;52.504;13.478;2023-07-02T12:05:56;11.05;;;5.13;;
44120;SDS011;29783;52.504;13.478;2023-07-02T12:08:21;20.08;;;5.97;;
44120;SDS011;29783;52.504;13.478;2023-07-02T12:10:47;17.15;;;5.93;;
44120;SDS011;29783;52.504;13.478;2023-07-02T12:13:13;12.00;;;4.55;;
44120;SDS011;29783;52.504;13.478;2023-07-02T12:15:39;15.20;;;4.43;;
44120;SDS011;29783;52.504;13.478;2023-07-02T12:18:04;14.10;;;5.30;;
44120;SDS011;29783;52.504;13.478;2023-07-02T12:20:30;18.35;;;3.75;;
44120;SDS011;29783;52.504;13.478;2023-07-02T12:22:56;14.50;;;4.38;;
44120;SDS011;29783;52.504;13.478;2023-07-02T12:25:22;24.38;;;6.72;;
44120;SDS011;29783;52.504;13.478;2023-07-02T12:27:48;30.67;;;6.45;;
44120;SDS011;29783;52.504;13.478;2023-07-02T12:30:14;17.65;;;4.93;;
44120;SDS011;29783;52.504;13.478;2023-07-02T12:32:43;11.57;;;3.60;;
44120;SDS011;29783;52.504;13.478;2023-07-02T12:35:09;17.58;;;4.75;;
44120;SDS011;29783;52.504;13.478;2023-07-02T12:37:42;15.95;;;5.95;;
44120;SDS011;29783;52.504;13.478;2023-07-02T12:40:09;23.85;;;6.60;;
44120;SDS011;29783;52.504;13.478;2023-07-02T12:42:35;17.38;;;6.20;;
44120;SDS011;29783;52.504;13.478;2023-07-02T12:45:00;14.20;;;5.43;;
44120;SDS011;29783;52.504;13.478;2023-07-02T12:47:26;20.00;;;6.50;;
44120;SDS011;29783;52.504;13.478;2023-07-02T12:49:51;14.70;;;5.85;;
44120;SDS011;29783;52.504;13.478;2023-07-02T12:52:17;20.40;;;5.22;;
44120;SDS011;29783;52.504;13.478;2023-07-02T12:54:42;7.47;;;2.95;;
44120;SDS011;29783;52.504;13.478;2023-07-02T12:57:08;29.80;;;7.07;;
44120;SDS011;29783;52.504;13.478;2023-07-02T12:59:35;17.42;;;6.03;;
44120;SDS011;29783;52.504;13.478;2023-07-02T13:02:00;13.38;;;5.78;;
44120;SDS011;29783;52.504;13.478;2023-07-02T13:04:26;17.60;;;5.95;;
44120;SDS011;29783;52.504;13.478;2023-07-02T13:06:51;7.90;;;4.57;;
44120;SDS011;29783;52.504;13.478;2023-07-02T13:09:17;11.85;;;5.72;;
44120;SDS011;29783;52.504;13.478;2023-07-02T13:11:43;14.23;;;5.55;;
44120;SDS011;29783;52.504;13.478;2023-07-02T13:14:09;20.75;;;5.45;;
44120;SDS011;29783;52.504;13.478;2023-07-02T13:16:35;17.85;;;5.80;;
44120;SDS011;29783;52.504;13.478;2023-07-02T13:19:01;16.52;;;5.47;;
44120;SDS011;29783;52.504;13.478;2023-07-02T13:21:27;18.13;;;6.65;;
44120;SDS011;29783;52.504;13.478;2023-07-02T13:23:53;17.63;;;6.32;;
44120;SDS011;29783;52.504;13.478;2023-07-02T13:26:18;24.17;;;6.05;;
44120;SDS011;29783;52.504;13.478;2023-07-02T13:28:45;19.38;;;6.25;;
44120;SDS011;29783;52.504;13.478;2023-07-02T13:31:12;11.48;;;4.88;;
44120;SDS011;29783;52.504;13.478;2023-07-02T13:33:39;11.70;;;4.57;;
44120;SDS011;29783;52.504;13.478;2023-07-02T13:36:04;17.23;;;5.80;;
44120;SDS011;29783;52.504;13.478;2023-07-02T13:38:30;14.10;;;4.70;;
44120;SDS011;29783;52.504;13.478;2023-07-02T13:40:56;11.38;;;5.82;;
44120;SDS011;29783;52.504;13.478;2023-07-02T13:43:23;13.80;;;6.55;;
44120;SDS011;29783;52.504;13.478;2023-07-02T13:45:48;23.70;;;5.82;;
44120;SDS011;29783;52.504;13.478;2023-07-02T13:48:14;9.93;;;4.72;;
44120;SDS011;29783;52.504;13.478;2023-07-02T13:50:40;17.75;;;6.40;;
44120;SDS011;29783;52.504;13.478;2023-07-02T13:53:06;19.02;;;7.03;;
44120;SDS011;29783;52.504;13.478;2023-07-02T13:55:32;14.50;;;6.57;;
44120;SDS011;29783;52.504;13.478;2023-07-02T13:57:58;16.55;;;7.00;;
44120;SDS011;29783;52.504;13.478;2023-07-02T14:00:26;12.60;;;6.10;;
44120;SDS011;29783;52.504;13.478;2023-07-02T14:02:53;22.92;;;6.40;;
44120;SDS011;29783;52.504;13.478;2023-07-02T14:05:19;15.57;;;6.50;;
44120;SDS011;29783;52.504;13.478;2023-07-02T14:07:45;15.55;;;6.13;;
44120;SDS011;29783;52.504;13.478;2023-07-02T14:10:11;30.77;;;6.72;;
44120;SDS011;29783;52.504;13.478;2023-07-02T14:12:40;19.85;;;6.57;;
44120;SDS011;29783;52.504;13.478;2023-07-02T14:15:06;17.52;;;5.90;;
44120;SDS011;29783;52.504;13.478;2023-07-02T14:17:33;14.38;;;5.60;;
44120;SDS011;29783;52.504;13.478;2023-07-02T14:19:59;15.50;;;5.97;;
44120;SDS011;29783;52.504;13.478;2023-07-02T14:22:25;25.08;;;7.13;;
44120;SDS011;29783;52.504;13.478;2023-07-02T14:24:50;14.02;;;6.22;;
44120;SDS011;29783;52.504;13.478;2023-07-02T14:27:16;13.77;;;5.95;;
44120;SDS011;29783;52.504;13.478;2023-07-02T14:29:42;16.80;;;6.85;;
44120;SDS011;29783;52.504;13.478;2023-07-02T14:32:07;17.75;;;6.32;;
44120;SDS011;29783;52.504;13.478;2023-07-02T14:34:33;19.10;;;6.43;;
44120;SDS011;29783;52.504;13.478;2023-07-02T14:36:59;17.40;;;6.55;;
44120;SDS011;29783;52.504;13.478;2023-07-02T14:39:24;15.55;;;6.60;;
44120;SDS011;29783;52.504;13.478;2023-07-02T14:41:50;20.88;;;6.35;;
44120;SDS011;29783;52.504;13.478;2023-07-02T14:44:16;14.68;;;6.18;;
44120;SDS011;29783;52.504;13.478;2023-07-02T14:46:42;23.92;;;6.50;;
44120;SDS011;29783;52.504;13.478;2023-07-02T14:49:08;15.48;;;6.07;;